SBBR/BSB METAR and TAF weather

Enter ICAO airport designator
Station Type Date Time Source
SBBR METAR 2019/12/07 00:00 UTC NOAA

SBBR 070000Z 05003KT 9999 SCT040 FEW045TCU BKN100 22/21 Q1018


Station Type Date Time Source
SBBR Decoded METAR 2019/12/07 00:00 UTC NOAA

Brasilia Aeroporto , Brazil (SBBR) 15-52S 047-56W 1061M
Dec 06, 2019 - 07:00 PM EST / 2019.12.07 0000 UTC
Wind: from the NE (050 degrees) at 3 MPH (3 KT):0
Visibility: greater than 7 mile(s):0
Sky conditions: mostly cloudy
Weather: Towering cumulus clouds observed
Temperature: 71 F (22 C)
Dew Point: 69 F (21 C)
Relative Humidity: 94%
Pressure (altimeter): 30.06 in. Hg (1018 hPa)
ob: SBBR 070000Z 05003KT 9999 SCT040 FEW045TCU BKN100 22/21 Q1018
cycle: 0

Station Type Date Time Source
SBBR TAF 2019/12/06 18:09 UTC NOAA

TAF SBBR 061600Z 0618/0718 11008KT 9000 SCT030 FEW040TCU TN20/0707Z TX28/0716Z
TEMPO 0618/0624 4500 TSRA BKN025 FEW035CB
BECMG 0620/0622 25005KT
BECMG 0700/0702 SCT020
BECMG 0702/0704 SCT010
TEMPO 0709/0712 BKN007
BECMG 0711/0713 31006KT BKN020
BECMG 0715/0717 SCT030 FEW035TCU
RMK PDU

Example: see airport list